Terminal Aerodrome Forecast
Issued by NWS Sterling, VA

Home | Current Version | Previous Version | Text Only | Print | Product List | Glossary On
Versions: 1 2 3 4 5 6 7 8 9 10 11 12 13 14 15 16 17 18 19 20 21 22 23 24
425
FTUS41 KLWX 232328
TAFBWI
TAF
KBWI 232328Z 2400/2506 18006KT P6SM SCT090
     FM240200 19005KT P6SM BKN080
     FM240500 19004KT P6SM SCT080
     FM240900 18004KT 3SM BR SCT100
     FM241300 18006KT P6SM BKN150
     FM241800 18010KT P6SM SCT150
     FM250200 16009KT P6SM BKN090 WS020/18035KT=

USA.gov is the U.S. government's official web portal to all federal, state and local government web resources and services.